sensor_id;sensor_type;location;lat;lon;timestamp;P1;durP1;ratioP1;P2;durP2;ratioP2
67514;SDS011;60646;55.802;37.032;2023-05-16T00:01:25;9.48;;;3.70;;
67514;SDS011;60646;55.802;37.032;2023-05-16T00:03:55;8.18;;;3.28;;
67514;SDS011;60646;55.802;37.032;2023-05-16T00:06:21;8.73;;;3.70;;
67514;SDS011;60646;55.802;37.032;2023-05-16T00:08:48;9.60;;;3.42;;
67514;SDS011;60646;55.802;37.032;2023-05-16T00:11:15;9.60;;;3.80;;
67514;SDS011;60646;55.802;37.032;2023-05-16T00:13:42;7.82;;;3.42;;
67514;SDS011;60646;55.802;37.032;2023-05-16T00:16:08;8.02;;;3.38;;
67514;SDS011;60646;55.802;37.032;2023-05-16T00:18:36;6.78;;;2.95;;
67514;SDS011;60646;55.802;37.032;2023-05-16T00:21:02;7.55;;;3.13;;
67514;SDS011;60646;55.802;37.032;2023-05-16T00:23:29;7.45;;;3.08;;
67514;SDS011;60646;55.802;37.032;2023-05-16T00:25:55;5.60;;;3.35;;
67514;SDS011;60646;55.802;37.032;2023-05-16T00:28:21;6.32;;;3.13;;
67514;SDS011;60646;55.802;37.032;2023-05-16T00:30:47;6.97;;;2.78;;
67514;SDS011;60646;55.802;37.032;2023-05-16T00:33:15;7.72;;;3.70;;
67514;SDS011;60646;55.802;37.032;2023-05-16T00:35:41;6.20;;;2.90;;
67514;SDS011;60646;55.802;37.032;2023-05-16T00:38:07;6.97;;;2.97;;
67514;SDS011;60646;55.802;37.032;2023-05-16T00:40:33;6.93;;;2.97;;
67514;SDS011;60646;55.802;37.032;2023-05-16T00:42:59;8.55;;;3.03;;
67514;SDS011;60646;55.802;37.032;2023-05-16T00:45:26;5.95;;;3.08;;
67514;SDS011;60646;55.802;37.032;2023-05-16T00:47:52;10.18;;;4.00;;
67514;SDS011;60646;55.802;37.032;2023-05-16T00:50:18;7.70;;;3.08;;
67514;SDS011;60646;55.802;37.032;2023-05-16T00:52:44;6.03;;;2.83;;
67514;SDS011;60646;55.802;37.032;2023-05-16T00:55:10;7.30;;;2.63;;
67514;SDS011;60646;55.802;37.032;2023-05-16T00:57:36;4.60;;;2.47;;
67514;SDS011;60646;55.802;37.032;2023-05-16T01:00:05;5.88;;;2.85;;
67514;SDS011;60646;55.802;37.032;2023-05-16T01:02:36;4.85;;;2.40;;
67514;SDS011;60646;55.802;37.032;2023-05-16T01:05:03;4.53;;;2.45;;
67514;SDS011;60646;55.802;37.032;2023-05-16T01:07:30;7.05;;;2.85;;
67514;SDS011;60646;55.802;37.032;2023-05-16T01:09:56;5.07;;;2.70;;
67514;SDS011;60646;55.802;37.032;2023-05-16T01:13:00;6.15;;;2.85;;
67514;SDS011;60646;55.802;37.032;2023-05-16T01:18:05;4.35;;;2.45;;
67514;SDS011;60646;55.802;37.032;2023-05-16T01:20:47;4.00;;;2.30;;
67514;SDS011;60646;55.802;37.032;2023-05-16T01:28:53;6.55;;;2.67;;
67514;SDS011;60646;55.802;37.032;2023-05-16T01:31:20;8.65;;;2.83;;
67514;SDS011;60646;55.802;37.032;2023-05-16T01:33:46;4.85;;;2.75;;
67514;SDS011;60646;55.802;37.032;2023-05-16T01:42:09;5.40;;;2.42;;
67514;SDS011;60646;55.802;37.032;2023-05-16T01:44:42;5.82;;;3.10;;
67514;SDS011;60646;55.802;37.032;2023-05-16T01:47:13;7.18;;;3.05;;
67514;SDS011;60646;55.802;37.032;2023-05-16T01:50:02;6.55;;;2.65;;
67514;SDS011;60646;55.802;37.032;2023-05-16T01:52:34;7.88;;;2.78;;
67514;SDS011;60646;55.802;37.032;2023-05-16T01:55:22;7.78;;;2.85;;
67514;SDS011;60646;55.802;37.032;2023-05-16T01:57:57;6.25;;;2.92;;
67514;SDS011;60646;55.802;37.032;2023-05-16T02:00:24;6.47;;;3.20;;
67514;SDS011;60646;55.802;37.032;2023-05-16T02:02:49;6.38;;;3.22;;
67514;SDS011;60646;55.802;37.032;2023-05-16T02:05:15;6.05;;;2.72;;
67514;SDS011;60646;55.802;37.032;2023-05-16T02:07:42;6.15;;;2.67;;
67514;SDS011;60646;55.802;37.032;2023-05-16T02:10:08;9.88;;;3.20;;
67514;SDS011;60646;55.802;37.032;2023-05-16T02:12:35;7.15;;;3.08;;
67514;SDS011;60646;55.802;37.032;2023-05-16T02:15:01;5.30;;;2.58;;
67514;SDS011;60646;55.802;37.032;2023-05-16T02:17:31;7.38;;;3.33;;
67514;SDS011;60646;55.802;37.032;2023-05-16T02:19:57;7.05;;;3.15;;
67514;SDS011;60646;55.802;37.032;2023-05-16T02:22:23;6.90;;;3.00;;
67514;SDS011;60646;55.802;37.032;2023-05-16T02:24:48;9.02;;;2.78;;
67514;SDS011;60646;55.802;37.032;2023-05-16T02:27:14;10.25;;;3.20;;
67514;SDS011;60646;55.802;37.032;2023-05-16T02:29:40;6.07;;;2.75;;
67514;SDS011;60646;55.802;37.032;2023-05-16T02:32:06;7.35;;;2.80;;
67514;SDS011;60646;55.802;37.032;2023-05-16T02:34:32;5.68;;;2.78;;
67514;SDS011;60646;55.802;37.032;2023-05-16T02:36:58;7.85;;;2.95;;
67514;SDS011;60646;55.802;37.032;2023-05-16T02:39:23;5.90;;;2.75;;
67514;SDS011;60646;55.802;37.032;2023-05-16T02:41:50;7.55;;;2.85;;
67514;SDS011;60646;55.802;37.032;2023-05-16T02:44:16;5.22;;;2.63;;
67514;SDS011;60646;55.802;37.032;2023-05-16T02:46:41;4.10;;;2.33;;
67514;SDS011;60646;55.802;37.032;2023-05-16T02:49:08;5.97;;;2.65;;
67514;SDS011;60646;55.802;37.032;2023-05-16T02:51:34;8.48;;;3.20;;
67514;SDS011;60646;55.802;37.032;2023-05-16T02:54:00;6.88;;;3.17;;
67514;SDS011;60646;55.802;37.032;2023-05-16T02:56:26;5.60;;;3.03;;
67514;SDS011;60646;55.802;37.032;2023-05-16T02:58:52;9.20;;;3.58;;
67514;SDS011;60646;55.802;37.032;2023-05-16T03:01:19;10.27;;;3.97;;
67514;SDS011;60646;55.802;37.032;2023-05-16T03:03:45;8.30;;;3.50;;
67514;SDS011;60646;55.802;37.032;2023-05-16T03:06:11;6.40;;;3.28;;
67514;SDS011;60646;55.802;37.032;2023-05-16T03:08:37;6.75;;;3.50;;
67514;SDS011;60646;55.802;37.032;2023-05-16T03:11:03;7.60;;;3.15;;
67514;SDS011;60646;55.802;37.032;2023-05-16T03:13:29;7.68;;;3.13;;
67514;SDS011;60646;55.802;37.032;2023-05-16T03:15:58;5.40;;;3.03;;
67514;SDS011;60646;55.802;37.032;2023-05-16T03:18:24;7.78;;;3.50;;
67514;SDS011;60646;55.802;37.032;2023-05-16T03:20:50;8.02;;;3.90;;
67514;SDS011;60646;55.802;37.032;2023-05-16T03:23:18;5.28;;;3.13;;
67514;SDS011;60646;55.802;37.032;2023-05-16T03:25:45;10.95;;;3.78;;
67514;SDS011;60646;55.802;37.032;2023-05-16T03:28:11;5.45;;;3.17;;
67514;SDS011;60646;55.802;37.032;2023-05-16T03:30:36;9.18;;;3.80;;
67514;SDS011;60646;55.802;37.032;2023-05-16T03:33:02;11.70;;;3.50;;
67514;SDS011;60646;55.802;37.032;2023-05-16T03:35:31;6.43;;;3.15;;
67514;SDS011;60646;55.802;37.032;2023-05-16T03:40:48;6.65;;;3.40;;
67514;SDS011;60646;55.802;37.032;2023-05-16T03:43:14;6.65;;;2.95;;
67514;SDS011;60646;55.802;37.032;2023-05-16T03:45:40;6.55;;;2.95;;
67514;SDS011;60646;55.802;37.032;2023-05-16T03:48:07;10.48;;;3.78;;
67514;SDS011;60646;55.802;37.032;2023-05-16T03:53:18;5.72;;;3.42;;
67514;SDS011;60646;55.802;37.032;2023-05-16T03:56:02;9.23;;;3.15;;
67514;SDS011;60646;55.802;37.032;2023-05-16T04:01:31;5.45;;;3.40;;
67514;SDS011;60646;55.802;37.032;2023-05-16T04:03:57;8.88;;;3.75;;
67514;SDS011;60646;55.802;37.032;2023-05-16T04:06:23;6.20;;;3.40;;
67514;SDS011;60646;55.802;37.032;2023-05-16T04:08:49;6.68;;;3.40;;
67514;SDS011;60646;55.802;37.032;2023-05-16T04:11:15;7.45;;;3.53;;
67514;SDS011;60646;55.802;37.032;2023-05-16T04:13:40;5.93;;;3.58;;
67514;SDS011;60646;55.802;37.032;2023-05-16T04:16:06;7.45;;;3.30;;
67514;SDS011;60646;55.802;37.032;2023-05-16T04:18:32;5.40;;;3.20;;
67514;SDS011;60646;55.802;37.032;2023-05-16T04:20:58;5.63;;;3.63;;
67514;SDS011;60646;55.802;37.032;2023-05-16T04:23:23;6.50;;;3.20;;
67514;SDS011;60646;55.802;37.032;2023-05-16T04:25:49;6.35;;;3.15;;
67514;SDS011;60646;55.802;37.032;2023-05-16T04:28:15;7.28;;;3.22;;
67514;SDS011;60646;55.802;37.032;2023-05-16T04:30:59;7.32;;;3.47;;
67514;SDS011;60646;55.802;37.032;2023-05-16T04:33:26;8.23;;;3.50;;
67514;SDS011;60646;55.802;37.032;2023-05-16T04:35:52;5.97;;;2.83;;
67514;SDS011;60646;55.802;37.032;2023-05-16T04:38:36;5.80;;;3.38;;
67514;SDS011;60646;55.802;37.032;2023-05-16T04:41:02;7.07;;;3.67;;
67514;SDS011;60646;55.802;37.032;2023-05-16T04:43:28;6.95;;;3.58;;
67514;SDS011;60646;55.802;37.032;2023-05-16T04:45:54;5.95;;;3.28;;
67514;SDS011;60646;55.802;37.032;2023-05-16T04:48:23;6.15;;;3.35;;
67514;SDS011;60646;55.802;37.032;2023-05-16T04:50:49;6.25;;;3.42;;
67514;SDS011;60646;55.802;37.032;2023-05-16T04:53:15;7.20;;;2.95;;
67514;SDS011;60646;55.802;37.032;2023-05-16T04:55:41;7.28;;;3.25;;
67514;SDS011;60646;55.802;37.032;2023-05-16T04:58:10;6.93;;;3.28;;
67514;SDS011;60646;55.802;37.032;2023-05-16T05:00:37;4.88;;;2.95;;
67514;SDS011;60646;55.802;37.032;2023-05-16T05:03:04;6.75;;;3.13;;
67514;SDS011;60646;55.802;37.032;2023-05-16T05:05:29;10.55;;;3.25;;
67514;SDS011;60646;55.802;37.032;2023-05-16T05:07:56;6.15;;;3.03;;
67514;SDS011;60646;55.802;37.032;2023-05-16T05:10:23;7.20;;;2.88;;
67514;SDS011;60646;55.802;37.032;2023-05-16T05:12:48;11.80;;;3.55;;
67514;SDS011;60646;55.802;37.032;2023-05-16T05:15:15;5.80;;;3.40;;
67514;SDS011;60646;55.802;37.032;2023-05-16T05:17:41;7.82;;;2.25;;
67514;SDS011;60646;55.802;37.032;2023-05-16T05:20:07;4.22;;;2.40;;
67514;SDS011;60646;55.802;37.032;2023-05-16T05:22:34;5.93;;;3.10;;
67514;SDS011;60646;55.802;37.032;2023-05-16T05:25:00;5.63;;;2.20;;
67514;SDS011;60646;55.802;37.032;2023-05-16T05:27:26;4.30;;;2.65;;
67514;SDS011;60646;55.802;37.032;2023-05-16T05:29:52;4.40;;;2.20;;
67514;SDS011;60646;55.802;37.032;2023-05-16T05:32:17;4.38;;;2.38;;
67514;SDS011;60646;55.802;37.032;2023-05-16T05:34:43;4.63;;;2.50;;
67514;SDS011;60646;55.802;37.032;2023-05-16T05:37:09;7.65;;;2.92;;
67514;SDS011;60646;55.802;37.032;2023-05-16T05:39:35;4.32;;;2.17;;
67514;SDS011;60646;55.802;37.032;2023-05-16T05:42:00;4.68;;;2.30;;
67514;SDS011;60646;55.802;37.032;2023-05-16T05:44:29;4.53;;;2.70;;
67514;SDS011;60646;55.802;37.032;2023-05-16T05:46:55;3.67;;;2.05;;
67514;SDS011;60646;55.802;37.032;2023-05-16T05:49:25;6.28;;;2.17;;
67514;SDS011;60646;55.802;37.032;2023-05-16T05:51:52;6.32;;;2.17;;
67514;SDS011;60646;55.802;37.032;2023-05-16T05:54:18;6.78;;;2.70;;
67514;SDS011;60646;55.802;37.032;2023-05-16T05:56:44;3.92;;;2.25;;
67514;SDS011;60646;55.802;37.032;2023-05-16T05:59:10;3.42;;;2.05;;
67514;SDS011;60646;55.802;37.032;2023-05-16T06:01:36;4.07;;;1.98;;
67514;SDS011;60646;55.802;37.032;2023-05-16T06:04:02;2.88;;;1.30;;
67514;SDS011;60646;55.802;37.032;2023-05-16T06:06:28;2.00;;;1.50;;
67514;SDS011;60646;55.802;37.032;2023-05-16T06:08:54;1.50;;;1.00;;
67514;SDS011;60646;55.802;37.032;2023-05-16T06:11:20;3.25;;;1.15;;
67514;SDS011;60646;55.802;37.032;2023-05-16T06:13:46;1.80;;;0.90;;
67514;SDS011;60646;55.802;37.032;2023-05-16T06:16:12;1.15;;;1.00;;
67514;SDS011;60646;55.802;37.032;2023-05-16T06:18:38;2.28;;;1.20;;
67514;SDS011;60646;55.802;37.032;2023-05-16T06:21:04;1.00;;;0.88;;
67514;SDS011;60646;55.802;37.032;2023-05-16T06:23:31;2.30;;;1.02;;
67514;SDS011;60646;55.802;37.032;2023-05-16T06:25:57;1.25;;;0.90;;
67514;SDS011;60646;55.802;37.032;2023-05-16T06:28:23;1.80;;;1.10;;
67514;SDS011;60646;55.802;37.032;2023-05-16T06:30:49;3.22;;;1.20;;
67514;SDS011;60646;55.802;37.032;2023-05-16T06:33:18;2.70;;;1.08;;
67514;SDS011;60646;55.802;37.032;2023-05-16T06:35:43;1.77;;;0.98;;
67514;SDS011;60646;55.802;37.032;2023-05-16T06:38:09;4.53;;;0.90;;
67514;SDS011;60646;55.802;37.032;2023-05-16T06:40:35;2.97;;;0.88;;
67514;SDS011;60646;55.802;37.032;2023-05-16T06:43:02;2.72;;;1.08;;
67514;SDS011;60646;55.802;37.032;2023-05-16T06:45:28;1.33;;;0.80;;
67514;SDS011;60646;55.802;37.032;2023-05-16T06:47:54;2.40;;;1.20;;
67514;SDS011;60646;55.802;37.032;2023-05-16T06:50:20;2.25;;;0.80;;
67514;SDS011;60646;55.802;37.032;2023-05-16T06:52:46;2.08;;;0.90;;
67514;SDS011;60646;55.802;37.032;2023-05-16T06:55:12;1.33;;;0.90;;
67514;SDS011;60646;55.802;37.032;2023-05-16T06:57:37;1.65;;;0.70;;
67514;SDS011;60646;55.802;37.032;2023-05-16T07:00:04;2.03;;;1.08;;
67514;SDS011;60646;55.802;37.032;2023-05-16T07:02:34;3.40;;;0.95;;
67514;SDS011;60646;55.802;37.032;2023-05-16T07:05:00;3.03;;;0.90;;
67514;SDS011;60646;55.802;37.032;2023-05-16T07:07:26;1.17;;;0.70;;
67514;SDS011;60646;55.802;37.032;2023-05-16T07:09:52;2.58;;;0.88;;
67514;SDS011;60646;55.802;37.032;2023-05-16T07:12:17;3.45;;;1.17;;
67514;SDS011;60646;55.802;37.032;2023-05-16T07:14:43;3.53;;;1.17;;
67514;SDS011;60646;55.802;37.032;2023-05-16T07:17:09;2.85;;;1.27;;
67514;SDS011;60646;55.802;37.032;2023-05-16T07:19:35;4.38;;;1.30;;
67514;SDS011;60646;55.802;37.032;2023-05-16T07:22:01;2.78;;;0.80;;
67514;SDS011;60646;55.802;37.032;2023-05-16T07:24:28;1.40;;;0.80;;
67514;SDS011;60646;55.802;37.032;2023-05-16T07:26:54;1.10;;;0.70;;
67514;SDS011;60646;55.802;37.032;2023-05-16T07:29:20;2.95;;;0.77;;
67514;SDS011;60646;55.802;37.032;2023-05-16T07:31:46;2.55;;;0.80;;
67514;SDS011;60646;55.802;37.032;2023-05-16T07:34:12;1.50;;;0.60;;
67514;SDS011;60646;55.802;37.032;2023-05-16T07:36:37;1.00;;;0.70;;
67514;SDS011;60646;55.802;37.032;2023-05-16T07:39:03;0.90;;;0.60;;
67514;SDS011;60646;55.802;37.032;2023-05-16T07:41:29;1.05;;;0.75;;
67514;SDS011;60646;55.802;37.032;2023-05-16T07:43:55;1.33;;;0.70;;
67514;SDS011;60646;55.802;37.032;2023-05-16T07:46:21;2.22;;;0.95;;
67514;SDS011;60646;55.802;37.032;2023-05-16T07:48:47;2.03;;;0.70;;
67514;SDS011;60646;55.802;37.032;2023-05-16T07:51:13;1.50;;;0.68;;
67514;SDS011;60646;55.802;37.032;2023-05-16T07:53:39;2.40;;;0.90;;
67514;SDS011;60646;55.802;37.032;2023-05-16T07:56:06;0.77;;;0.70;;
67514;SDS011;60646;55.802;37.032;2023-05-16T07:58:32;1.80;;;0.88;;
67514;SDS011;60646;55.802;37.032;2023-05-16T08:00:58;1.15;;;0.70;;
67514;SDS011;60646;55.802;37.032;2023-05-16T08:03:24;1.13;;;0.80;;
67514;SDS011;60646;55.802;37.032;2023-05-16T08:05:50;1.83;;;0.70;;
67514;SDS011;60646;55.802;37.032;2023-05-16T08:08:17;2.70;;;0.70;;
67514;SDS011;60646;55.802;37.032;2023-05-16T08:10:43;1.48;;;0.60;;
67514;SDS011;60646;55.802;37.032;2023-05-16T08:13:09;1.27;;;0.77;;
67514;SDS011;60646;55.802;37.032;2023-05-16T08:15:35;2.25;;;0.73;;
67514;SDS011;60646;55.802;37.032;2023-05-16T08:18:01;1.13;;;0.73;;
67514;SDS011;60646;55.802;37.032;2023-05-16T08:20:27;4.95;;;0.70;;
67514;SDS011;60646;55.802;37.032;2023-05-16T08:22:53;0.93;;;0.60;;
67514;SDS011;60646;55.802;37.032;2023-05-16T08:25:20;2.25;;;0.85;;
67514;SDS011;60646;55.802;37.032;2023-05-16T08:27:47;2.63;;;0.88;;
67514;SDS011;60646;55.802;37.032;2023-05-16T08:30:14;1.08;;;0.60;;
67514;SDS011;60646;55.802;37.032;2023-05-16T08:32:40;1.15;;;0.75;;
67514;SDS011;60646;55.802;37.032;2023-05-16T08:35:06;1.73;;;0.90;;
67514;SDS011;60646;55.802;37.032;2023-05-16T08:37:32;1.08;;;0.52;;
67514;SDS011;60646;55.802;37.032;2023-05-16T08:39:59;1.25;;;0.82;;
67514;SDS011;60646;55.802;37.032;2023-05-16T08:42:25;0.70;;;0.60;;
67514;SDS011;60646;55.802;37.032;2023-05-16T08:44:51;2.47;;;0.68;;
67514;SDS011;60646;55.802;37.032;2023-05-16T08:47:18;1.10;;;0.60;;
67514;SDS011;60646;55.802;37.032;2023-05-16T08:49:47;0.90;;;0.70;;
67514;SDS011;60646;55.802;37.032;2023-05-16T08:52:17;1.10;;;0.70;;
67514;SDS011;60646;55.802;37.032;2023-05-16T08:54:44;0.73;;;0.57;;
67514;SDS011;60646;55.802;37.032;2023-05-16T08:57:12;0.45;;;0.43;;
67514;SDS011;60646;55.802;37.032;2023-05-16T08:59:39;1.05;;;0.55;;
67514;SDS011;60646;55.802;37.032;2023-05-16T09:02:06;0.40;;;0.40;;
67514;SDS011;60646;55.802;37.032;2023-05-16T09:04:34;0.68;;;0.43;;
67514;SDS011;60646;55.802;37.032;2023-05-16T09:07:01;0.82;;;0.60;;
67514;SDS011;60646;55.802;37.032;2023-05-16T09:09:27;1.10;;;0.60;;
67514;SDS011;60646;55.802;37.032;2023-05-16T09:11:54;0.60;;;0.50;;
67514;SDS011;60646;55.802;37.032;2023-05-16T09:14:20;1.90;;;0.63;;
67514;SDS011;60646;55.802;37.032;2023-05-16T09:17:01;0.60;;;0.50;;
67514;SDS011;60646;55.802;37.032;2023-05-16T09:19:38;2.47;;;0.65;;
67514;SDS011;60646;55.802;37.032;2023-05-16T09:22:06;3.45;;;0.70;;
67514;SDS011;60646;55.802;37.032;2023-05-16T09:24:37;2.85;;;1.00;;
67514;SDS011;60646;55.802;37.032;2023-05-16T09:27:07;1.23;;;0.70;;
67514;SDS011;60646;55.802;37.032;2023-05-16T09:29:52;1.05;;;0.60;;
67514;SDS011;60646;55.802;37.032;2023-05-16T09:32:22;1.15;;;0.77;;
67514;SDS011;60646;55.802;37.032;2023-05-16T09:34:49;2.58;;;0.77;;
67514;SDS011;60646;55.802;37.032;2023-05-16T09:37:16;3.53;;;0.75;;
67514;SDS011;60646;55.802;37.032;2023-05-16T09:42:16;0.52;;;0.50;;
67514;SDS011;60646;55.802;37.032;2023-05-16T09:44:53;0.85;;;0.60;;
67514;SDS011;60646;55.802;37.032;2023-05-16T09:47:38;1.52;;;0.80;;
67514;SDS011;60646;55.802;37.032;2023-05-16T09:50:14;2.08;;;0.80;;
67514;SDS011;60646;55.802;37.032;2023-05-16T09:52:41;0.98;;;0.50;;
67514;SDS011;60646;55.802;37.032;2023-05-16T09:55:08;1.92;;;0.63;;
67514;SDS011;60646;55.802;37.032;2023-05-16T09:57:37;2.25;;;0.50;;
67514;SDS011;60646;55.802;37.032;2023-05-16T10:00:11;0.90;;;0.50;;
67514;SDS011;60646;55.802;37.032;2023-05-16T10:02:38;0.50;;;0.50;;
67514;SDS011;60646;55.802;37.032;2023-05-16T10:05:06;0.50;;;0.50;;
67514;SDS011;60646;55.802;37.032;2023-05-16T10:07:33;1.42;;;0.60;;
67514;SDS011;60646;55.802;37.032;2023-05-16T10:10:06;0.80;;;0.50;;
67514;SDS011;60646;55.802;37.032;2023-05-16T10:12:33;1.17;;;0.60;;
67514;SDS011;60646;55.802;37.032;2023-05-16T10:15:01;2.50;;;0.60;;
67514;SDS011;60646;55.802;37.032;2023-05-16T10:17:34;2.35;;;0.55;;
67514;SDS011;60646;55.802;37.032;2023-05-16T10:20:05;1.30;;;0.55;;
67514;SDS011;60646;55.802;37.032;2023-05-16T10:22:51;1.92;;;0.85;;
67514;SDS011;60646;55.802;37.032;2023-05-16T10:25:24;1.35;;;0.65;;
67514;SDS011;60646;55.802;37.032;2023-05-16T10:30:36;0.73;;;0.52;;
67514;SDS011;60646;55.802;37.032;2023-05-16T10:33:24;0.90;;;0.70;;
67514;SDS011;60646;55.802;37.032;2023-05-16T10:36:27;0.88;;;0.50;;
67514;SDS011;60646;55.802;37.032;2023-05-16T10:38:54;1.27;;;0.43;;
67514;SDS011;60646;55.802;37.032;2023-05-16T10:41:39;1.02;;;0.70;;
67514;SDS011;60646;55.802;37.032;2023-05-16T10:44:08;1.85;;;0.65;;
67514;SDS011;60646;55.802;37.032;2023-05-16T10:46:38;0.77;;;0.52;;
67514;SDS011;60646;55.802;37.032;2023-05-16T10:49:20;0.70;;;0.70;;
67514;SDS011;60646;55.802;37.032;2023-05-16T10:54:56;0.80;;;0.80;;
67514;SDS011;60646;55.802;37.032;2023-05-16T10:57:29;3.80;;;0.60;;
67514;SDS011;60646;55.802;37.032;2023-05-16T10:59:58;2.00;;;0.60;;
67514;SDS011;60646;55.802;37.032;2023-05-16T11:02:27;1.15;;;0.63;;
67514;SDS011;60646;55.802;37.032;2023-05-16T11:04:58;1.15;;;0.60;;
67514;SDS011;60646;55.802;37.032;2023-05-16T11:07:45;2.00;;;1.05;;
67514;SDS011;60646;55.802;37.032;2023-05-16T11:10:29;1.48;;;0.90;;
67514;SDS011;60646;55.802;37.032;2023-05-16T11:12:55;0.70;;;0.52;;
67514;SDS011;60646;55.802;37.032;2023-05-16T11:15:30;1.48;;;0.60;;
67514;SDS011;60646;55.802;37.032;2023-05-16T11:18:03;0.85;;;0.60;;
67514;SDS011;60646;55.802;37.032;2023-05-16T11:20:34;1.05;;;0.50;;
67514;SDS011;60646;55.802;37.032;2023-05-16T11:25:56;1.13;;;0.75;;
67514;SDS011;60646;55.802;37.032;2023-05-16T11:28:25;2.20;;;0.70;;
67514;SDS011;60646;55.802;37.032;2023-05-16T11:30:52;0.70;;;0.50;;
67514;SDS011;60646;55.802;37.032;2023-05-16T11:33:21;0.80;;;0.60;;
67514;SDS011;60646;55.802;37.032;2023-05-16T11:38:33;2.90;;;0.70;;
67514;SDS011;60646;55.802;37.032;2023-05-16T11:41:03;0.95;;;0.55;;
67514;SDS011;60646;55.802;37.032;2023-05-16T11:43:40;1.30;;;0.77;;
67514;SDS011;60646;55.802;37.032;2023-05-16T11:46:13;0.90;;;0.45;;
67514;SDS011;60646;55.802;37.032;2023-05-16T11:48:41;2.45;;;0.50;;
67514;SDS011;60646;55.802;37.032;2023-05-16T11:51:08;0.50;;;0.50;;
67514;SDS011;60646;55.802;37.032;2023-05-16T11:53:34;1.05;;;0.50;;
67514;SDS011;60646;55.802;37.032;2023-05-16T11:56:00;1.20;;;0.50;;
67514;SDS011;60646;55.802;37.032;2023-05-16T11:58:27;0.50;;;0.40;;
67514;SDS011;60646;55.802;37.032;2023-05-16T12:00:54;1.40;;;0.60;;
67514;SDS011;60646;55.802;37.032;2023-05-16T12:03:20;1.17;;;0.40;;
67514;SDS011;60646;55.802;37.032;2023-05-16T12:06:05;0.47;;;0.47;;
67514;SDS011;60646;55.802;37.032;2023-05-16T12:08:31;0.47;;;0.40;;
67514;SDS011;60646;55.802;37.032;2023-05-16T12:10:57;3.35;;;0.70;;
67514;SDS011;60646;55.802;37.032;2023-05-16T12:13:23;1.77;;;0.60;;
67514;SDS011;60646;55.802;37.032;2023-05-16T12:16:18;0.75;;;0.50;;
67514;SDS011;60646;55.802;37.032;2023-05-16T12:18:44;2.60;;;0.52;;
67514;SDS011;60646;55.802;37.032;2023-05-16T12:21:11;1.33;;;0.50;;
67514;SDS011;60646;55.802;37.032;2023-05-16T12:23:37;1.58;;;0.60;;
67514;SDS011;60646;55.802;37.032;2023-05-16T12:26:03;0.60;;;0.50;;
67514;SDS011;60646;55.802;37.032;2023-05-16T12:28:31;1.00;;;0.50;;
67514;SDS011;60646;55.802;37.032;2023-05-16T12:31:10;0.73;;;0.63;;
67514;SDS011;60646;55.802;37.032;2023-05-16T12:33:56;1.27;;;0.50;;
67514;SDS011;60646;55.802;37.032;2023-05-16T12:36:22;5.55;;;1.05;;
67514;SDS011;60646;55.802;37.032;2023-05-16T12:38:49;1.17;;;0.70;;
67514;SDS011;60646;55.802;37.032;2023-05-16T12:41:19;1.17;;;0.50;;
67514;SDS011;60646;55.802;37.032;2023-05-16T12:43:47;1.52;;;0.50;;
67514;SDS011;60646;55.802;37.032;2023-05-16T12:46:14;2.72;;;0.70;;
67514;SDS011;60646;55.802;37.032;2023-05-16T12:48:40;0.60;;;0.45;;
67514;SDS011;60646;55.802;37.032;2023-05-16T12:51:09;0.40;;;0.40;;
67514;SDS011;60646;55.802;37.032;2023-05-16T12:53:40;1.90;;;0.75;;
67514;SDS011;60646;55.802;37.032;2023-05-16T12:56:08;1.30;;;0.50;;
67514;SDS011;60646;55.802;37.032;2023-05-16T12:58:35;1.67;;;0.43;;
67514;SDS011;60646;55.802;37.032;2023-05-16T13:01:02;1.05;;;0.52;;
67514;SDS011;60646;55.802;37.032;2023-05-16T13:03:29;2.03;;;0.70;;
67514;SDS011;60646;55.802;37.032;2023-05-16T13:05:54;0.73;;;0.50;;
67514;SDS011;60646;55.802;37.032;2023-05-16T13:08:20;0.77;;;0.47;;
67514;SDS011;60646;55.802;37.032;2023-05-16T13:10:53;1.30;;;0.63;;
67514;SDS011;60646;55.802;37.032;2023-05-16T13:13:18;2.08;;;0.50;;
67514;SDS011;60646;55.802;37.032;2023-05-16T13:15:44;0.40;;;0.40;;
67514;SDS011;60646;55.802;37.032;2023-05-16T13:18:10;1.70;;;0.50;;
67514;SDS011;60646;55.802;37.032;2023-05-16T13:20:36;0.75;;;0.55;;
67514;SDS011;60646;55.802;37.032;2023-05-16T13:23:03;0.95;;;0.55;;
67514;SDS011;60646;55.802;37.032;2023-05-16T13:25:32;1.45;;;0.50;;
67514;SDS011;60646;55.802;37.032;2023-05-16T13:27:58;0.88;;;0.55;;
67514;SDS011;60646;55.802;37.032;2023-05-16T13:30:27;1.15;;;0.52;;
67514;SDS011;60646;55.802;37.032;2023-05-16T13:32:55;2.10;;;0.52;;
67514;SDS011;60646;55.802;37.032;2023-05-16T13:35:21;0.50;;;0.50;;
67514;SDS011;60646;55.802;37.032;2023-05-16T13:37:46;1.23;;;0.68;;
67514;SDS011;60646;55.802;37.032;2023-05-16T13:40:12;1.83;;;0.68;;
67514;SDS011;60646;55.802;37.032;2023-05-16T13:42:38;1.85;;;0.80;;
67514;SDS011;60646;55.802;37.032;2023-05-16T13:45:04;2.03;;;0.77;;
67514;SDS011;60646;55.802;37.032;2023-05-16T13:47:32;1.42;;;0.60;;
67514;SDS011;60646;55.802;37.032;2023-05-16T13:49:59;1.42;;;0.80;;
67514;SDS011;60646;55.802;37.032;2023-05-16T13:52:31;0.85;;;0.70;;
67514;SDS011;60646;55.802;37.032;2023-05-16T13:54:57;0.50;;;0.50;;
67514;SDS011;60646;55.802;37.032;2023-05-16T13:57:23;1.42;;;0.80;;
67514;SDS011;60646;55.802;37.032;2023-05-16T13:59:49;1.00;;;0.60;;
67514;SDS011;60646;55.802;37.032;2023-05-16T14:02:15;1.08;;;0.73;;
67514;SDS011;60646;55.802;37.032;2023-05-16T14:04:42;1.58;;;0.70;;
67514;SDS011;60646;55.802;37.032;2023-05-16T14:07:08;1.40;;;0.50;;
67514;SDS011;60646;55.802;37.032;2023-05-16T14:09:35;3.45;;;0.73;;
67514;SDS011;60646;55.802;37.032;2023-05-16T14:12:11;0.60;;;0.50;;
67514;SDS011;60646;55.802;37.032;2023-05-16T14:14:37;1.83;;;0.60;;
67514;SDS011;60646;55.802;37.032;2023-05-16T14:17:02;0.82;;;0.50;;
67514;SDS011;60646;55.802;37.032;2023-05-16T14:19:29;0.57;;;0.38;;
67514;SDS011;60646;55.802;37.032;2023-05-16T14:21:55;1.33;;;0.60;;
67514;SDS011;60646;55.802;37.032;2023-05-16T14:24:21;3.38;;;1.13;;
67514;SDS011;60646;55.802;37.032;2023-05-16T14:26:47;0.65;;;0.50;;
67514;SDS011;60646;55.802;37.032;2023-05-16T14:29:13;0.68;;;0.40;;
67514;SDS011;60646;55.802;37.032;2023-05-16T14:31:39;0.55;;;0.40;;
67514;SDS011;60646;55.802;37.032;2023-05-16T14:34:05;0.50;;;0.40;;
67514;SDS011;60646;55.802;37.032;2023-05-16T14:36:31;0.75;;;0.47;;
67514;SDS011;60646;55.802;37.032;2023-05-16T14:38:57;0.90;;;0.60;;
67514;SDS011;60646;55.802;37.032;2023-05-16T14:41:23;1.10;;;0.65;;
67514;SDS011;60646;55.802;37.032;2023-05-16T14:43:49;0.98;;;0.60;;
67514;SDS011;60646;55.802;37.032;2023-05-16T14:46:15;0.90;;;0.52;;
67514;SDS011;60646;55.802;37.032;2023-05-16T14:48:42;2.70;;;0.68;;
67514;SDS011;60646;55.802;37.032;2023-05-16T14:51:07;1.00;;;0.60;;
67514;SDS011;60646;55.802;37.032;2023-05-16T14:53:33;1.20;;;0.52;;
67514;SDS011;60646;55.802;37.032;2023-05-16T14:55:59;0.70;;;0.55;;
67514;SDS011;60646;55.802;37.032;2023-05-16T14:58:27;2.63;;;0.70;;
67514;SDS011;60646;55.802;37.032;2023-05-16T15:00:53;2.15;;;0.80;;
67514;SDS011;60646;55.802;37.032;2023-05-16T15:03:19;0.57;;;0.57;;
67514;SDS011;60646;55.802;37.032;2023-05-16T15:05:45;1.35;;;0.60;;
67514;SDS011;60646;55.802;37.032;2023-05-16T15:08:10;1.20;;;0.50;;
67514;SDS011;60646;55.802;37.032;2023-05-16T15:10:36;1.00;;;0.80;;
67514;SDS011;60646;55.802;37.032;2023-05-16T15:13:02;1.45;;;0.70;;
67514;SDS011;60646;55.802;37.032;2023-05-16T15:15:28;1.85;;;0.60;;